Time;durP1;ratioP1;P1;durP2;ratioP2;P2;SDS_P1;SDS_P2;PMS_P1;PMS_P2;Temp;Humidity;BMP_temperature;BMP_pressure;BME280_temperature;BME280_humidity;BME280_pressure;Samples;Min_cycle;Max_cycle;Signal;HPM_P1;HPM_P2
2022/11/01 00:02:04;;;;;;;11.20;5.33;;;17.00;99.90;;;;;;5105040;28;20198;-64
2022/11/01 00:04:33;;;;;;;12.00;5.53;;;17.00;99.90;;;;;;5095550;28;20192;-65
2022/11/01 00:07:02;;;;;;;13.10;5.60;;;17.00;99.90;;;;;;5093575;28;20190;-64
2022/11/01 00:09:31;;;;;;;13.90;5.57;;;17.00;99.90;;;;;;5108902;28;20257;-64
2022/11/01 00:11:59;;;;;;;9.80;5.93;;;17.00;99.90;;;;;;5088839;28;20224;-65
2022/11/01 00:14:27;;;;;;;12.67;5.33;;;17.00;99.90;;;;;;5110541;28;20205;-64
2022/11/01 00:16:56;;;;;;;16.20;5.30;;;17.00;99.90;;;;;;5092132;28;20643;-64
2022/11/01 00:19:24;;;;;;;9.87;5.37;;;17.00;99.90;;;;;;5109670;28;20226;-65
2022/11/01 00:21:52;;;;;;;8.73;4.80;;;17.10;99.90;;;;;;5110134;28;20202;-65
2022/11/01 00:24:22;;;;;;;9.07;4.77;;;17.10;99.90;;;;;;5107487;28;20203;-65
2022/11/01 00:26:51;;;;;;;13.37;5.80;;;17.20;99.90;;;;;;5101851;28;20191;-64
2022/11/01 00:29:19;;;;;;;6.60;4.40;;;17.20;99.90;;;;;;5108277;28;20201;-64
2022/11/01 00:31:47;;;;;;;8.43;5.30;;;17.20;99.90;;;;;;5097929;28;20210;-64
2022/11/01 00:34:16;;;;;;;9.03;4.90;;;17.20;99.90;;;;;;5099754;28;20268;-65
2022/11/01 00:36:44;;;;;;;7.63;4.67;;;17.30;99.90;;;;;;5102579;28;20202;-65
2022/11/01 00:39:13;;;;;;;10.90;4.70;;;17.30;99.90;;;;;;5100569;28;20196;-65
2022/11/01 00:41:43;;;;;;;14.73;5.13;;;17.30;99.90;;;;;;5093107;28;20252;-65
2022/11/01 00:44:12;;;;;;;17.33;4.63;;;17.40;99.90;;;;;;5102853;28;20190;-64
2022/11/01 00:46:40;;;;;;;11.33;4.43;;;17.40;99.90;;;;;;5102055;28;20202;-65
2022/11/01 00:49:08;;;;;;;6.43;4.07;;;17.40;99.90;;;;;;5102231;28;20202;-65
2022/11/01 00:51:36;;;;;;;6.23;4.10;;;17.40;99.90;;;;;;5097842;28;20210;-64
2022/11/01 00:54:05;;;;;;;7.00;4.43;;;17.40;99.90;;;;;;5101947;28;20208;-65
2022/11/01 00:56:33;;;;;;;8.40;4.07;;;17.50;99.90;;;;;;5087541;28;20190;-64
2022/11/01 00:59:03;;;;;;;7.30;4.20;;;17.50;99.90;;;;;;5106138;28;20191;-65
2022/11/01 01:01:32;;;;;;;7.37;4.47;;;17.40;99.90;;;;;;5081782;28;20215;-64
2022/11/01 01:04:00;;;;;;;10.23;4.40;;;17.40;99.90;;;;;;5104762;28;20243;-65
2022/11/01 01:06:28;;;;;;;11.33;4.53;;;17.40;99.90;;;;;;5078970;28;20700;-64
2022/11/01 01:08:59;;;;;;;7.80;3.93;;;17.30;99.90;;;;;;5103026;28;20517;-64
2022/11/01 01:11:27;;;;;;;8.43;4.03;;;17.40;99.90;;;;;;5108528;28;20183;-63
2022/11/01 01:13:56;;;;;;;6.70;4.13;;;17.40;99.90;;;;;;5082942;28;20197;-64
2022/11/01 01:16:26;;;;;;;8.40;3.53;;;17.40;99.90;;;;;;5104876;28;20202;-64
2022/11/01 01:18:54;;;;;;;9.80;3.83;;;17.40;99.90;;;;;;5098801;28;20190;-65
2022/11/01 01:21:23;;;;;;;6.47;3.50;;;17.40;99.90;;;;;;5083832;28;20225;-64
2022/11/01 01:23:53;;;;;;;10.17;4.27;;;17.40;99.90;;;;;;5100963;28;20632;-65
2022/11/01 01:26:21;;;;;;;3.83;3.47;;;17.30;99.90;;;;;;5105892;28;20199;-64
2022/11/01 01:28:53;;;;;;;5.30;3.33;;;17.30;99.90;;;;;;5108376;28;20195;-64
2022/11/01 01:31:22;;;;;;;3.83;1.90;;;17.10;99.90;;;;;;5085198;28;20199;-64
2022/11/01 01:33:51;;;;;;;2.40;1.70;;;16.80;99.90;;;;;;5104919;28;20662;-65
2022/11/01 01:36:20;;;;;;;2.67;1.83;;;16.70;99.90;;;;;;5109671;28;20204;-64
2022/11/01 01:38:51;;;;;;;2.47;1.70;;;16.60;99.90;;;;;;5093059;28;20188;-64
2022/11/01 01:44:38;;;;;;;2.07;1.73;;;16.30;99.90;;;;;;5074259;28;20204;-64
2022/11/01 01:47:07;;;;;;;3.90;1.50;;;16.20;99.90;;;;;;5106405;28;20214;-64
2022/11/01 01:49:37;;;;;;;1.50;1.50;;;16.10;99.90;;;;;;5080005;28;20197;-64
2022/11/01 01:52:10;;;;;;;4.00;1.43;;;16.00;99.90;;;;;;5079241;28;20272;-64
2022/11/01 01:54:39;;;;;;;3.70;1.40;;;16.00;99.90;;;;;;5103242;28;20195;-65
2022/11/01 01:57:08;;;;;;;3.07;1.40;;;15.90;99.90;;;;;;5102439;28;20199;-65
2022/11/01 01:59:37;;;;;;;4.07;1.30;;;15.90;99.90;;;;;;5104767;28;20203;-64
2022/11/01 02:02:06;;;;;;;1.47;1.20;;;15.80;99.90;;;;;;5101217;28;20552;-64
2022/11/01 02:04:41;;;;;;;3.33;1.60;;;15.70;99.90;;;;;;5100907;28;20200;-64
2022/11/01 02:07:10;;;;;;;1.53;1.20;;;15.70;99.90;;;;;;5104407;28;20192;-64
2022/11/01 02:09:39;;;;;;;2.43;1.20;;;15.60;99.90;;;;;;5109310;28;20660;-64
2022/11/01 02:12:08;;;;;;;1.20;1.10;;;15.50;99.90;;;;;;5100939;28;20694;-65
2022/11/01 02:14:38;;;;;;;1.67;1.47;;;15.50;99.90;;;;;;5096549;28;20195;-64
2022/11/01 02:17:12;;;;;;;1.30;1.20;;;15.50;99.90;;;;;;5097793;28;20206;-64
2022/11/01 02:20:16;;;;;;;1.93;1.23;;;15.50;99.90;;;;;;5107110;28;20203;-65
2022/11/01 02:23:11;;;;;;;1.30;1.20;;;15.40;99.90;;;;;;5098893;28;20210;-64
2022/11/01 02:26:00;;;;;;;1.00;1.00;;;15.40;99.90;;;;;;5101087;28;20205;-65
2022/11/01 02:28:44;;;;;;;1.87;1.27;;;15.30;99.90;;;;;;5103062;28;20196;-64
2022/11/01 02:31:32;;;;;;;6.87;1.30;;;15.30;99.90;;;;;;5095859;28;20202;-64
2022/11/01 02:34:05;;;;;;;8.90;1.43;;;15.20;99.90;;;;;;5104817;28;20634;-64
2022/11/01 02:36:42;;;;;;;1.20;1.10;;;15.20;99.90;;;;;;5099593;28;20196;-64
2022/11/01 02:39:17;;;;;;;4.97;1.23;;;15.10;99.90;;;;;;5097102;28;20285;-64
2022/11/01 02:41:51;;;;;;;1.77;1.47;;;15.10;99.90;;;;;;5089063;28;20225;-64
2022/11/01 02:44:25;;;;;;;1.20;1.20;;;15.10;99.90;;;;;;5104665;28;20192;-64
2022/11/01 02:47:01;;;;;;;3.47;1.40;;;15.00;99.90;;;;;;5082681;28;20187;-64
2022/11/01 02:49:35;;;;;;;1.80;1.30;;;15.00;99.90;;;;;;5095803;28;20214;-64
2022/11/01 02:52:06;;;;;;;2.60;1.30;;;14.90;99.90;;;;;;5081080;28;20629;-64
2022/11/01 02:54:39;;;;;;;2.03;1.23;;;14.80;99.90;;;;;;5089459;28;20565;-64
2022/11/01 02:57:25;;;;;;;4.23;1.10;;;14.70;99.90;;;;;;5102051;28;20202;-64
2022/11/01 03:00:00;;;;;;;1.17;1.10;;;14.80;99.90;;;;;;5104291;28;20637;-64
2022/11/01 03:02:40;;;;;;;1.47;1.10;;;14.70;99.90;;;;;;5102005;28;20229;-64
2022/11/01 03:05:16;;;;;;;1.50;1.30;;;14.70;99.90;;;;;;5089718;28;20195;-64
2022/11/01 03:07:49;;;;;;;1.40;1.23;;;14.70;99.90;;;;;;5094750;28;20533;-64
2022/11/01 03:10:20;;;;;;;1.30;1.20;;;14.70;99.90;;;;;;5112820;28;20187;-64
2022/11/01 03:12:56;;;;;;;2.37;1.30;;;14.70;99.90;;;;;;5104823;28;20230;-64
2022/11/01 03:15:28;;;;;;;2.73;1.10;;;14.70;99.90;;;;;;5101880;28;20206;-64
2022/11/01 03:18:01;;;;;;;2.17;1.33;;;14.70;99.90;;;;;;5104215;28;20209;-65
2022/11/01 03:20:47;;;;;;;2.80;1.33;;;14.70;99.90;;;;;;5075923;28;20191;-64
2022/11/01 03:23:19;;;;;;;5.23;1.30;;;14.70;99.90;;;;;;5073890;28;20207;-64
2022/11/01 03:25:53;;;;;;;5.13;1.60;;;14.70;99.90;;;;;;5099469;28;20191;-64
2022/11/01 03:28:25;;;;;;;4.03;1.20;;;14.60;99.90;;;;;;5105864;28;20202;-64
2022/11/01 03:30:57;;;;;;;6.67;1.40;;;14.50;99.90;;;;;;5103925;28;20186;-64
2022/11/01 03:33:27;;;;;;;4.27;1.07;;;14.40;99.90;;;;;;5060702;28;20211;-64
2022/11/01 03:36:01;;;;;;;5.97;1.40;;;14.40;99.90;;;;;;5099080;28;20203;-64
2022/11/01 03:38:35;;;;;;;8.43;1.20;;;14.30;99.90;;;;;;5102725;28;20209;-64
2022/11/01 03:41:09;;;;;;;3.20;1.30;;;14.30;99.90;;;;;;5104171;28;20222;-64
2022/11/01 03:43:38;;;;;;;1.90;1.27;;;14.30;99.90;;;;;;5105509;28;20200;-64
2022/11/01 03:46:07;;;;;;;6.03;1.37;;;14.30;99.90;;;;;;5100751;28;20209;-64
2022/11/01 03:48:39;;;;;;;3.90;1.23;;;14.20;99.90;;;;;;5109850;28;20255;-64
2022/11/01 03:51:09;;;;;;;4.67;1.30;;;14.10;99.90;;;;;;5102929;28;20224;-64
2022/11/01 03:53:37;;;;;;;6.43;1.30;;;14.10;99.90;;;;;;5098877;28;20196;-64
2022/11/01 03:56:05;;;;;;;4.00;1.40;;;14.10;99.90;;;;;;5110146;28;20195;-64
2022/11/01 03:58:44;;;;;;;1.77;1.20;;;14.10;99.90;;;;;;5095974;28;20646;-64
2022/11/01 04:01:14;;;;;;;5.63;1.43;;;14.10;99.90;;;;;;5091045;28;20210;-64
2022/11/01 04:03:43;;;;;;;4.20;1.47;;;14.10;99.90;;;;;;5095073;28;20203;-64
2022/11/01 04:06:12;;;;;;;8.43;1.57;;;14.10;99.90;;;;;;5084457;28;20194;-64
2022/11/01 04:08:41;;;;;;;3.07;1.33;;;14.10;99.90;;;;;;5105779;28;20210;-64
2022/11/01 04:11:10;;;;;;;3.63;1.40;;;14.00;99.90;;;;;;5109078;28;20191;-65
2022/11/01 04:13:38;;;;;;;3.33;1.13;;;14.00;99.90;;;;;;5091018;28;20227;-64
2022/11/01 04:21:42;;;;;;;3.90;1.50;;;13.80;99.90;;;;;;5102671;28;20221;-64
2022/11/01 04:24:19;;;;;;;6.87;2.07;;;13.80;99.90;;;;;;5112251;28;20557;-64
2022/11/01 04:26:47;;;;;;;6.63;1.90;;;13.70;99.90;;;;;;5102152;28;20549;-64
2022/11/01 04:29:16;;;;;;;7.33;2.13;;;13.70;99.90;;;;;;5112876;28;20221;-64
2022/11/01 04:31:44;;;;;;;10.17;1.87;;;13.70;99.90;;;;;;5106758;28;20190;-64
2022/11/01 04:34:12;;;;;;;7.00;1.87;;;13.60;99.90;;;;;;5109762;28;20200;-64
2022/11/01 04:36:42;;;;;;;6.03;1.77;;;13.60;99.90;;;;;;5110538;28;20187;-64
2022/11/01 04:39:10;;;;;;;5.43;1.80;;;13.50;99.90;;;;;;5109398;28;20199;-64
2022/11/01 04:41:38;;;;;;;6.23;1.60;;;13.50;99.90;;;;;;5108017;28;20223;-64
2022/11/01 04:44:08;;;;;;;5.20;1.80;;;13.50;99.90;;;;;;5111361;28;20198;-64
2022/11/01 04:46:36;;;;;;;7.80;1.50;;;13.40;99.90;;;;;;5110538;28;20538;-64
2022/11/01 04:49:04;;;;;;;8.83;1.60;;;13.40;99.90;;;;;;5102648;28;20199;-64
2022/11/01 04:51:32;;;;;;;9.00;1.53;;;13.40;99.90;;;;;;5105576;28;20195;-64
2022/11/01 04:54:02;;;;;;;6.73;1.60;;;13.40;99.90;;;;;;5102894;28;20253;-64
2022/11/01 04:56:30;;;;;;;5.07;1.80;;;13.30;99.90;;;;;;5101414;28;20199;-64
2022/11/01 04:58:58;;;;;;;6.77;1.70;;;13.30;99.90;;;;;;5103742;28;20222;-64
2022/11/01 05:01:27;;;;;;;11.63;1.60;;;13.20;99.90;;;;;;5087020;28;20191;-64
2022/11/01 05:03:55;;;;;;;6.60;1.63;;;13.20;99.90;;;;;;5088265;28;20187;-64
2022/11/01 05:06:24;;;;;;;5.47;2.10;;;13.20;99.90;;;;;;5105766;28;20291;-64
2022/11/01 05:08:54;;;;;;;5.83;1.70;;;13.20;99.90;;;;;;5108586;28;20187;-64
2022/11/01 05:11:24;;;;;;;5.27;1.67;;;13.10;99.90;;;;;;5086238;28;20187;-64
2022/11/01 05:13:53;;;;;;;5.27;1.63;;;13.10;99.90;;;;;;5088401;28;20200;-64
2022/11/01 05:16:22;;;;;;;6.07;1.63;;;13.00;99.90;;;;;;5085493;28;20245;-64
2022/11/01 05:18:50;;;;;;;8.53;1.87;;;13.00;99.90;;;;;;5088992;28;20199;-64
2022/11/01 05:21:19;;;;;;;8.33;1.83;;;12.90;99.90;;;;;;5084880;28;20883;-64
2022/11/01 05:23:48;;;;;;;7.97;1.90;;;12.90;99.90;;;;;;5090498;28;20207;-64
2022/11/01 05:26:16;;;;;;;7.90;1.77;;;12.90;99.90;;;;;;5084756;28;20208;-64
2022/11/01 05:28:46;;;;;;;4.47;1.60;;;12.90;99.90;;;;;;5082757;28;20187;-64
2022/11/01 05:31:15;;;;;;;9.53;2.20;;;12.90;99.90;;;;;;5086456;28;20520;-64
2022/11/01 05:33:43;;;;;;;5.40;1.67;;;12.80;99.90;;;;;;5063290;28;20202;-64
2022/11/01 05:36:11;;;;;;;10.23;1.70;;;12.80;99.90;;;;;;5076098;28;20198;-64
2022/11/01 05:38:39;;;;;;;9.80;2.17;;;12.70;99.90;;;;;;5081071;28;20204;-64
2022/11/01 05:41:08;;;;;;;5.27;1.97;;;12.70;99.90;;;;;;5088756;28;20195;-64
2022/11/01 05:43:36;;;;;;;5.70;1.93;;;12.70;99.90;;;;;;5062515;28;20205;-64
2022/11/01 05:46:07;;;;;;;7.13;1.90;;;12.70;99.90;;;;;;5064310;28;20195;-64
2022/11/01 05:48:35;;;;;;;8.70;2.43;;;12.70;99.90;;;;;;5063310;28;20195;-64
2022/11/01 05:51:04;;;;;;;10.87;2.33;;;12.60;99.90;;;;;;5061746;28;20531;-64
2022/11/01 05:53:32;;;;;;;5.37;1.80;;;12.60;99.90;;;;;;5075750;28;20189;-64
2022/11/01 05:56:01;;;;;;;6.97;2.03;;;12.50;99.90;;;;;;5086088;28;20192;-64
2022/11/01 05:58:29;;;;;;;5.70;1.83;;;12.40;99.90;;;;;;5084966;28;20207;-64
2022/11/01 06:00:58;;;;;;;4.23;1.80;;;12.40;99.90;;;;;;5082781;28;20192;-64
2022/11/01 06:03:28;;;;;;;6.97;2.23;;;12.30;99.90;;;;;;5083623;28;20212;-64
2022/11/01 06:05:56;;;;;;;12.13;2.33;;;12.40;99.90;;;;;;5081819;28;20195;-64
2022/11/01 06:08:27;;;;;;;9.47;1.80;;;12.40;99.90;;;;;;5085803;28;20571;-64
2022/11/01 06:11:02;;;;;;;14.73;2.37;;;12.30;99.90;;;;;;5085744;28;20199;-64
2022/11/01 06:13:31;;;;;;;9.27;2.60;;;12.30;99.90;;;;;;5106966;28;20223;-64
2022/11/01 06:16:00;;;;;;;9.40;2.20;;;12.30;99.90;;;;;;5101543;28;20198;-64
2022/11/01 06:18:30;;;;;;;4.37;2.23;;;12.30;99.90;;;;;;5087308;28;20221;-64
2022/11/01 06:20:59;;;;;;;10.73;2.03;;;12.20;99.90;;;;;;5107726;28;20205;-64
2022/11/01 06:23:27;;;;;;;8.37;2.00;;;12.20;99.90;;;;;;5107310;28;20226;-64
2022/11/01 06:26:01;;;;;;;8.13;2.30;;;12.10;99.90;;;;;;5102874;28;20286;-64
2022/11/01 06:28:30;;;;;;;8.53;2.23;;;12.10;99.90;;;;;;5102900;28;20209;-64
2022/11/01 06:31:00;;;;;;;8.10;2.57;;;12.10;99.90;;;;;;5101017;28;20610;-64
2022/11/01 06:33:30;;;;;;;8.57;2.40;;;12.10;99.90;;;;;;5079919;28;20724;-64
2022/11/01 06:35:58;;;;;;;8.10;2.20;;;12.00;99.90;;;;;;5105371;28;20195;-64
2022/11/01 06:38:26;;;;;;;9.87;2.57;;;12.00;99.90;;;;;;5088411;28;20187;-64
2022/11/01 06:40:55;;;;;;;10.47;2.80;;;11.90;99.90;;;;;;5101497;28;20198;-64
2022/11/01 06:43:23;;;;;;;12.93;2.37;;;11.90;99.90;;;;;;5107650;28;20982;-64
2022/11/01 06:45:51;;;;;;;8.33;2.27;;;11.90;99.90;;;;;;5101733;28;20191;-64
2022/11/01 06:48:19;;;;;;;9.87;2.17;;;11.90;99.90;;;;;;5082839;28;20203;-64
2022/11/01 06:50:49;;;;;;;9.07;2.07;;;11.90;99.90;;;;;;5105926;28;20202;-64
2022/11/01 06:53:17;;;;;;;11.00;2.83;;;11.90;99.90;;;;;;5105093;28;20206;-64
2022/11/01 06:55:45;;;;;;;7.63;2.20;;;11.90;99.90;;;;;;5099452;28;20644;-64
2022/11/01 06:58:14;;;;;;;10.90;2.33;;;12.00;99.90;;;;;;5107342;28;20203;-64
2022/11/01 07:00:42;;;;;;;9.77;2.03;;;12.00;99.90;;;;;;5106189;28;20216;-64
2022/11/01 07:03:13;;;;;;;5.47;1.93;;;12.00;99.90;;;;;;5104023;28;20223;-64
2022/11/01 07:05:41;;;;;;;10.30;2.77;;;11.90;99.90;;;;;;5109016;28;20195;-64
2022/11/01 07:08:13;;;;;;;9.50;2.10;;;11.90;99.90;;;;;;5099275;28;20195;-64
2022/11/01 07:10:43;;;;;;;9.80;2.23;;;11.90;99.90;;;;;;5101868;28;20194;-64
2022/11/01 07:13:13;;;;;;;12.47;2.33;;;11.90;99.90;;;;;;5084496;28;20227;-64
2022/11/01 07:15:42;;;;;;;8.67;2.40;;;12.00;99.90;;;;;;5101850;28;20195;-64
2022/11/01 07:18:10;;;;;;;11.67;2.57;;;12.00;99.90;;;;;;5101040;28;20198;-64
2022/11/01 07:20:42;;;;;;;7.93;2.30;;;12.00;99.90;;;;;;5103720;28;20195;-64
2022/11/01 07:23:14;;;;;;;10.00;2.27;;;12.00;99.90;;;;;;5108916;28;20895;-64
2022/11/01 07:25:43;;;;;;;13.40;2.30;;;12.00;99.90;;;;;;5104909;28;20194;-64
2022/11/01 07:28:12;;;;;;;10.90;2.30;;;12.00;99.90;;;;;;5104070;28;20198;-64
2022/11/01 07:30:40;;;;;;;9.73;2.70;;;12.00;99.90;;;;;;5086105;28;20194;-64
2022/11/01 07:33:08;;;;;;;13.13;2.63;;;12.00;99.90;;;;;;5106387;28;20194;-64
2022/11/01 07:35:36;;;;;;;8.77;2.47;;;12.00;99.90;;;;;;5113456;28;20653;-64
2022/11/01 07:38:05;;;;;;;11.50;2.83;;;12.00;99.90;;;;;;5108121;28;20195;-65
2022/11/01 07:40:40;;;;;;;16.43;3.07;;;12.00;99.90;;;;;;5100225;28;20196;-64
2022/11/01 07:43:08;;;;;;;10.70;2.33;;;12.00;99.90;;;;;;5083727;28;20227;-64
2022/11/01 07:45:37;;;;;;;11.20;2.43;;;12.10;99.90;;;;;;5104979;28;20193;-64
2022/11/01 07:48:09;;;;;;;14.63;2.23;;;12.10;99.90;;;;;;5104907;28;20523;-64
2022/11/01 07:50:38;;;;;;;10.47;2.50;;;12.10;99.90;;;;;;5085648;28;20183;-64
2022/11/01 07:53:08;;;;;;;9.83;2.50;;;12.20;99.90;;;;;;5104290;28;20313;-64
2022/11/01 07:55:37;;;;;;;9.00;2.50;;;12.30;99.90;;;;;;5103413;28;20641;-64
2022/11/01 07:58:07;;;;;;;11.87;2.13;;;12.30;99.90;;;;;;5102122;28;20201;-65
2022/11/01 08:00:36;;;;;;;9.60;2.30;;;12.30;99.90;;;;;;5107009;28;20568;-64
2022/11/01 08:03:06;;;;;;;7.00;2.20;;;12.30;99.90;;;;;;5099558;28;20191;-64
2022/11/01 08:05:35;;;;;;;9.60;2.80;;;12.40;99.90;;;;;;5102062;28;20199;-64
2022/11/01 08:08:04;;;;;;;10.23;2.50;;;12.40;99.90;;;;;;5103657;28;20199;-64
2022/11/01 08:10:34;;;;;;;12.73;2.50;;;12.50;99.90;;;;;;5106575;28;20190;-64
2022/11/01 08:13:04;;;;;;;10.50;2.43;;;12.50;99.90;;;;;;5101143;28;20227;-64
2022/11/01 08:15:34;;;;;;;10.83;2.33;;;12.60;99.90;;;;;;5088517;28;20198;-64
2022/11/01 08:18:03;;;;;;;7.20;2.50;;;12.60;99.90;;;;;;5108226;28;20195;-64
2022/11/01 08:20:32;;;;;;;9.40;2.73;;;12.70;99.90;;;;;;5105048;28;20222;-65
2022/11/01 08:23:00;;;;;;;11.03;2.63;;;12.70;99.90;;;;;;5109651;28;20191;-64
2022/11/01 08:25:29;;;;;;;9.53;2.33;;;12.70;99.90;;;;;;5110541;28;20234;-64
2022/11/01 08:28:01;;;;;;;12.03;2.13;;;12.80;99.90;;;;;;5092189;28;20210;-64
2022/11/01 08:30:30;;;;;;;16.33;2.90;;;12.80;99.90;;;;;;5100059;28;20557;-64
2022/11/01 08:33:01;;;;;;;10.87;2.57;;;12.90;99.90;;;;;;5105461;27;20190;-64
2022/11/01 08:35:31;;;;;;;8.70;2.23;;;12.90;99.90;;;;;;5101456;28;20283;-64
2022/11/01 08:38:00;;;;;;;14.17;2.70;;;12.90;99.90;;;;;;5108339;28;20704;-64
2022/11/01 08:40:28;;;;;;;12.83;2.63;;;13.00;99.90;;;;;;5106879;28;20195;-64
2022/11/01 08:42:57;;;;;;;8.97;2.07;;;13.00;99.90;;;;;;5105732;27;20226;-65
2022/11/01 08:45:26;;;;;;;6.10;2.20;;;13.10;99.90;;;;;;5104902;27;20199;-64
2022/11/01 08:47:58;;;;;;;6.23;2.37;;;13.10;99.90;;;;;;5079164;28;20221;-65
2022/11/01 08:50:28;;;;;;;11.10;2.30;;;13.20;99.90;;;;;;5104231;28;20194;-64
2022/11/01 08:52:56;;;;;;;6.17;2.20;;;13.20;99.90;;;;;;5089090;28;20924;-64
2022/11/01 08:55:25;;;;;;;11.47;2.63;;;13.30;99.90;;;;;;5102625;28;20218;-64
2022/11/01 08:57:53;;;;;;;14.40;3.30;;;13.40;99.90;;;;;;5087366;28;20198;-64
2022/11/01 09:00:22;;;;;;;8.90;2.40;;;13.50;99.90;;;;;;5107819;28;20203;-64
2022/11/01 09:02:50;;;;;;;11.63;2.23;;;13.50;99.90;;;;;;5104598;28;20227;-64
2022/11/01 09:05:18;;;;;;;11.50;2.10;;;13.60;99.90;;;;;;5108768;28;20218;-64
2022/11/01 09:07:48;;;;;;;12.17;2.50;;;13.60;99.90;;;;;;5103269;28;20191;-64
2022/11/01 09:10:19;;;;;;;12.87;2.73;;;13.70;99.90;;;;;;5107758;28;20197;-64
2022/11/01 09:12:48;;;;;;;8.57;1.83;;;13.80;99.90;;;;;;5105257;27;20241;-64
2022/11/01 09:15:16;;;;;;;12.33;3.13;;;13.90;99.90;;;;;;5110869;28;20193;-64
2022/11/01 09:17:44;;;;;;;10.30;2.77;;;13.90;99.90;;;;;;5108351;28;20196;-64
2022/11/01 09:20:14;;;;;;;11.20;2.23;;;14.00;99.90;;;;;;5085865;28;20187;-64
2022/11/01 09:22:42;;;;;;;11.17;2.90;;;14.10;99.90;;;;;;5112681;28;20187;-64
2022/11/01 09:25:12;;;;;;;12.20;2.50;;;14.20;99.90;;;;;;5098498;28;20226;-64
2022/11/01 09:27:40;;;;;;;7.50;2.17;;;14.20;99.90;;;;;;5110038;27;20199;-64
2022/11/01 09:30:10;;;;;;;8.33;2.17;;;14.20;99.90;;;;;;5107721;28;20631;-65
2022/11/01 09:32:38;;;;;;;9.57;2.20;;;14.30;99.90;;;;;;5103914;27;20198;-65
2022/11/01 09:35:07;;;;;;;10.67;2.33;;;14.40;99.90;;;;;;5110925;28;20195;-64
2022/11/01 09:37:36;;;;;;;8.97;2.47;;;14.50;99.90;;;;;;5085775;28;20183;-65
2022/11/01 09:40:05;;;;;;;18.70;2.60;;;14.60;99.90;;;;;;5101673;28;20698;-65
2022/11/01 09:42:40;;;;;;;6.83;1.90;;;14.60;99.90;;;;;;5103110;28;20221;-64
2022/11/01 09:45:14;;;;;;;12.97;2.80;;;14.70;99.90;;;;;;5105011;28;20207;-65
2022/11/01 09:47:45;;;;;;;12.73;2.47;;;14.70;99.90;;;;;;5105246;27;20525;-64
2022/11/01 09:50:18;;;;;;;5.73;2.30;;;14.80;99.90;;;;;;5109192;28;20195;-64
2022/11/01 09:52:47;;;;;;;11.33;2.80;;;14.90;99.90;;;;;;5102456;28;20534;-64
2022/11/01 09:55:17;;;;;;;8.47;2.20;;;15.00;99.90;;;;;;5103492;28;20200;-65
2022/11/01 09:57:55;;;;;;;12.27;2.60;;;15.10;99.90;;;;;;5107628;28;20573;-64
2022/11/01 10:00:23;;;;;;;10.50;2.40;;;15.20;99.90;;;;;;5100894;28;20225;-65
2022/11/01 10:03:14;;;;;;;10.77;2.80;;;15.20;99.90;;;;;;5095338;28;20199;-64
2022/11/01 10:05:51;;;;;;;10.63;2.40;;;15.30;99.90;;;;;;5101830;28;20295;-65
2022/11/01 10:08:37;;;;;;;10.30;2.50;;;15.30;99.90;;;;;;5085608;28;20584;-64
2022/11/01 10:11:25;;;;;;;7.17;2.30;;;15.50;99.90;;;;;;5103304;28;20574;-64
2022/11/01 10:14:05;;;;;;;9.17;2.37;;;15.60;99.90;;;;;;5108069;27;20201;-64
2022/11/01 10:16:36;;;;;;;13.47;2.60;;;15.70;99.90;;;;;;5089673;28;20207;-64
2022/11/01 10:19:11;;;;;;;14.93;2.77;;;15.70;99.90;;;;;;5073647;28;20743;-64
2022/11/01 10:21:43;;;;;;;5.97;2.23;;;15.70;99.90;;;;;;5105774;28;20200;-64
2022/11/01 10:24:22;;;;;;;13.67;2.50;;;15.90;99.90;;;;;;5105844;28;20207;-64
2022/11/01 10:26:56;;;;;;;11.53;2.20;;;15.90;99.90;;;;;;5100184;28;20200;-64
2022/11/01 10:29:33;;;;;;;7.53;2.37;;;15.80;99.90;;;;;;5087603;28;20197;-64
2022/11/01 10:32:04;;;;;;;9.57;2.40;;;15.90;99.90;;;;;;5105932;28;20208;-64
2022/11/01 10:34:34;;;;;;;9.47;2.00;;;15.90;99.90;;;;;;5105211;28;20538;-64
2022/11/01 10:37:14;;;;;;;10.80;2.40;;;15.90;99.90;;;;;;5104354;28;20563;-65
2022/11/01 10:39:50;;;;;;;5.47;1.90;;;15.90;99.90;;;;;;5091576;28;20191;-64
2022/11/01 10:42:28;;;;;;;9.33;2.57;;;15.90;99.90;;;;;;5099851;28;20735;-65
2022/11/01 10:45:00;;;;;;;7.73;2.00;;;15.90;99.90;;;;;;5100887;28;20225;-65
2022/11/01 10:47:29;;;;;;;9.00;2.13;;;16.00;99.90;;;;;;5100238;28;20202;-65
2022/11/01 10:50:01;;;;;;;8.50;2.40;;;16.10;99.90;;;;;;5102889;28;20631;-65
2022/11/01 10:52:45;;;;;;;11.10;2.70;;;16.30;99.90;;;;;;5101990;28;20618;-64
2022/11/01 10:55:17;;;;;;;11.87;2.57;;;16.30;99.90;;;;;;5082886;28;20193;-65
2022/11/01 10:57:49;;;;;;;14.13;2.47;;;16.30;99.90;;;;;;5103104;28;20195;-65
2022/11/01 11:00:20;;;;;;;7.83;2.70;;;16.30;99.90;;;;;;5101534;27;20196;-65
2022/11/01 11:03:16;;;;;;;8.83;2.20;;;16.40;99.90;;;;;;5099323;28;20594;-65
2022/11/01 11:05:46;;;;;;;8.60;2.20;;;16.30;99.90;;;;;;5101796;28;20636;-64
2022/11/01 11:08:16;;;;;;;10.63;2.20;;;16.40;99.90;;;;;;5102108;28;20212;-65
2022/11/01 11:10:45;;;;;;;9.33;2.23;;;16.40;99.90;;;;;;5104680;28;20295;-65
2022/11/01 11:13:18;;;;;;;7.73;2.20;;;16.60;99.90;;;;;;5101211;28;20226;-65
2022/11/01 11:15:51;;;;;;;9.60;2.40;;;16.60;99.90;;;;;;5083939;28;20204;-64
2022/11/01 11:18:24;;;;;;;6.83;2.07;;;16.60;99.90;;;;;;5104813;28;20193;-65
2022/11/01 11:20:58;;;;;;;14.03;2.40;;;16.60;99.90;;;;;;5102052;28;20191;-65
2022/11/01 11:23:28;;;;;;;12.60;2.37;;;16.70;99.90;;;;;;5101973;28;20266;-65
2022/11/01 11:26:01;;;;;;;12.87;2.30;;;16.80;99.90;;;;;;5099754;28;20214;-65
2022/11/01 11:28:32;;;;;;;11.63;2.10;;;16.70;99.90;;;;;;5102682;28;20555;-65
2022/11/01 11:31:14;;;;;;;11.93;2.33;;;16.80;99.90;;;;;;5104083;28;20197;-65
2022/11/01 11:33:50;;;;;;;8.73;1.90;;;17.00;99.90;;;;;;5108108;28;20193;-65
2022/11/01 11:36:27;;;;;;;12.10;2.47;;;17.00;99.90;;;;;;5106544;28;20206;-65
2022/11/01 11:38:56;;;;;;;6.80;2.10;;;17.00;99.90;;;;;;5100982;28;20201;-65
2022/11/01 11:41:30;;;;;;;7.80;2.40;;;17.00;99.90;;;;;;5107666;28;20197;-65
2022/11/01 11:43:59;;;;;;;10.67;2.47;;;17.00;99.90;;;;;;5108831;28;20190;-65
2022/11/01 11:46:29;;;;;;;10.10;2.00;;;17.00;99.90;;;;;;5066445;28;20236;-65
2022/11/01 11:49:00;;;;;;;6.50;2.00;;;17.10;99.90;;;;;;5104098;28;20191;-65
2022/11/01 11:51:29;;;;;;;9.77;2.10;;;17.10;99.90;;;;;;5104750;28;20198;-65
2022/11/01 11:54:24;;;;;;;10.23;2.20;;;17.10;99.90;;;;;;5102994;28;20190;-65
2022/11/01 11:57:07;;;;;;;6.57;2.40;;;17.30;99.90;;;;;;5102531;28;20195;-65
2022/11/01 11:59:41;;;;;;;8.60;2.47;;;17.20;99.90;;;;;;5088803;28;20197;-64
2022/11/01 12:02:19;;;;;;;9.50;1.87;;;17.00;99.90;;;;;;5084612;28;20194;-64
2022/11/01 12:04:52;;;;;;;7.47;2.17;;;17.10;99.90;;;;;;5105422;27;20264;-64
2022/11/01 12:07:32;;;;;;;11.57;2.20;;;17.10;99.90;;;;;;5100694;28;20203;-65
2022/11/01 12:10:02;;;;;;;10.63;2.33;;;17.20;99.90;;;;;;5112159;27;20204;-65
2022/11/01 12:12:32;;;;;;;7.63;1.93;;;17.20;99.90;;;;;;5078459;28;20236;-65
2022/11/01 12:15:02;;;;;;;10.27;2.30;;;17.20;99.90;;;;;;5090423;28;20195;-65
2022/11/01 12:17:43;;;;;;;4.43;2.00;;;17.20;99.90;;;;;;5090744;28;20653;-65
2022/11/01 12:20:17;;;;;;;8.13;2.40;;;17.20;99.90;;;;;;5089000;28;20195;-65
2022/11/01 12:22:49;;;;;;;8.17;2.00;;;17.20;99.90;;;;;;5081103;28;20197;-65
2022/11/01 12:25:21;;;;;;;7.90;2.10;;;17.30;99.90;;;;;;5089506;28;20301;-65
2022/11/01 12:27:59;;;;;;;5.20;1.87;;;17.40;99.90;;;;;;5070675;28;20217;-65
2022/11/01 12:30:32;;;;;;;8.57;2.20;;;17.60;99.90;;;;;;5089275;28;20203;-65
2022/11/01 12:33:09;;;;;;;5.00;2.00;;;17.80;99.90;;;;;;5090727;28;21035;-65
2022/11/01 12:35:42;;;;;;;8.50;2.03;;;17.70;99.90;;;;;;5092746;28;20289;-65
2022/11/01 12:38:35;;;;;;;7.47;2.00;;;17.50;99.90;;;;;;5091793;28;20230;-65
2022/11/01 12:41:18;;;;;;;5.47;1.80;;;17.50;99.90;;;;;;5084910;28;20191;-65
2022/11/01 12:43:56;;;;;;;9.40;2.30;;;17.40;99.90;;;;;;5088978;28;20218;-65
2022/11/01 12:46:32;;;;;;;4.63;1.87;;;17.50;99.90;;;;;;5069937;28;20583;-65
2022/11/01 12:49:06;;;;;;;6.47;1.90;;;17.60;99.90;;;;;;5085906;28;20187;-65
2022/11/01 12:51:41;;;;;;;4.67;2.03;;;17.60;99.90;;;;;;5086688;28;20218;-66
2022/11/01 12:54:15;;;;;;;6.67;2.37;;;17.60;99.90;;;;;;5089910;28;20206;-65
2022/11/01 12:56:43;;;;;;;6.80;1.77;;;17.70;99.90;;;;;;5072838;28;20203;-66
2022/11/01 12:59:14;;;;;;;9.90;2.20;;;17.80;99.90;;;;;;5092274;28;20203;-65
2022/11/01 13:01:56;;;;;;;11.37;2.43;;;17.70;99.90;;;;;;5089644;28;20198;-65
2022/11/01 13:04:31;;;;;;;5.37;1.77;;;17.70;99.90;;;;;;5090104;28;20195;-65
2022/11/01 13:07:19;;;;;;;12.47;2.43;;;17.70;99.90;;;;;;5075333;28;20208;-65
2022/11/01 13:10:01;;;;;;;7.20;2.13;;;17.80;99.90;;;;;;5090394;28;20195;-66
2022/11/01 13:12:40;;;;;;;9.90;2.10;;;17.70;99.90;;;;;;5092262;28;20224;-65
2022/11/01 13:15:16;;;;;;;4.03;1.60;;;17.80;99.90;;;;;;5089396;28;20205;-66